createdAt,value
2024-01-16T00:01:59.805Z,96828.94
2024-01-16T00:04:28.208Z,96861.53
2024-01-16T00:06:55.631Z,96865.31
2024-01-16T00:09:22.865Z,96835.66
2024-01-16T00:11:49.849Z,96865.47
2024-01-16T00:14:17.067Z,96841.22
2024-01-16T00:16:47.884Z,96802.06
2024-01-16T00:19:15.406Z,96812.06
2024-01-16T00:21:43.728Z,96820.75
2024-01-16T00:24:10.975Z,96854.66
2024-01-16T00:26:38.276Z,96750.47
2024-01-16T00:29:07.862Z,96849.22
2024-01-16T00:31:35.373Z,96845.66
2024-01-16T00:34:02.810Z,96844.00
2024-01-16T00:36:30.193Z,96821.56
2024-01-16T00:38:57.701Z,96861.69
2024-01-16T00:41:25.361Z,96837.94
2024-01-16T00:43:52.696Z,96789.44
2024-01-16T00:46:20.009Z,96810.06
2024-01-16T00:48:47.356Z,96835.50
2024-01-16T00:51:14.501Z,96828.94
2024-01-16T00:53:42.509Z,96864.31
2024-01-16T00:56:10.273Z,96862.19
2024-01-16T00:58:37.629Z,96842.50
2024-01-16T01:01:05.265Z,96854.69
2024-01-16T01:03:33.600Z,96861.88
2024-01-16T01:06:02.220Z,96865.81
2024-01-16T01:08:29.734Z,96802.56
2024-01-16T01:10:57.109Z,96848.13
2024-01-16T01:13:26.451Z,96795.00
2024-01-16T01:15:53.877Z,96832.19
2024-01-16T01:18:21.754Z,96842.84
2024-01-16T01:20:49.262Z,96853.97
2024-01-16T01:23:19.220Z,96825.47
2024-01-16T01:25:46.733Z,96805.69
2024-01-16T01:28:13.944Z,96845.78
2024-01-16T01:30:41.502Z,96846.59
2024-01-16T01:33:08.800Z,96818.25
2024-01-16T01:35:36.188Z,96836.63
2024-01-16T01:38:03.466Z,96827.63
2024-01-16T01:40:33.732Z,96862.84
2024-01-16T01:43:17.752Z,96840.22
2024-01-16T01:45:44.921Z,96818.94
2024-01-16T01:48:12.158Z,96837.91
2024-01-16T01:50:40.063Z,96807.44
2024-01-16T01:53:07.288Z,96836.28
2024-01-16T01:55:34.799Z,96814.81
2024-01-16T01:58:05.460Z,96776.00
2024-01-16T02:00:33.191Z,96842.19
2024-01-16T02:03:01.517Z,96829.44
2024-01-16T02:05:30.130Z,96849.75
2024-01-16T02:07:57.636Z,96785.69
2024-01-16T02:10:25.784Z,96826.78
2024-01-16T02:12:52.956Z,96827.94
2024-01-16T02:15:20.210Z,96779.94
2024-01-16T02:17:49.256Z,96821.75
2024-01-16T02:20:36.988Z,96792.06
2024-01-16T02:23:05.738Z,96807.44
2024-01-16T02:25:33.277Z,96794.84
2024-01-16T02:28:01.928Z,96819.56
2024-01-16T02:30:29.064Z,96831.19
2024-01-16T02:32:56.259Z,96843.00
2024-01-16T02:35:23.637Z,96797.13
2024-01-16T02:37:50.939Z,96845.63
2024-01-16T02:40:18.178Z,96832.03
2024-01-16T02:42:46.237Z,96827.78
2024-01-16T02:45:13.784Z,96838.91
2024-01-16T02:47:41.896Z,96842.19
2024-01-16T02:50:11.141Z,96808.94
2024-01-16T02:52:38.537Z,96834.00
2024-01-16T02:55:06.246Z,96856.13
2024-01-16T02:57:33.544Z,96801.75
2024-01-16T03:00:00.686Z,96801.25
2024-01-16T03:02:27.790Z,96854.81
2024-01-16T03:04:55.058Z,96848.63
2024-01-16T03:07:22.070Z,96850.41
2024-01-16T03:09:49.213Z,96805.81
2024-01-16T03:12:16.501Z,96829.59
2024-01-16T03:14:43.877Z,96849.25
2024-01-16T03:17:11.107Z,96800.59
2024-01-16T03:19:38.483Z,96846.16
2024-01-16T03:22:05.727Z,96805.34
2024-01-16T03:24:32.877Z,96836.31
2024-01-16T03:27:00.474Z,96821.56
2024-01-16T03:29:27.671Z,96810.09
2024-01-16T03:31:55.014Z,96828.28
2024-01-16T03:34:22.494Z,96803.56
2024-01-16T03:36:49.690Z,96846.47
2024-01-16T03:39:16.688Z,96856.97
2024-01-16T03:41:43.782Z,96848.44
2024-01-16T03:44:11.092Z,96862.88
2024-01-16T03:46:38.728Z,96850.75
2024-01-16T03:49:05.968Z,96811.09
2024-01-16T03:51:33.667Z,96837.47
2024-01-16T03:54:00.823Z,96800.59
2024-01-16T03:56:28.137Z,96847.16
2024-01-16T03:58:55.549Z,96819.28
2024-01-16T04:01:38.395Z,96810.91
2024-01-16T04:04:08.643Z,96818.78
2024-01-16T04:06:36.183Z,96816.16
2024-01-16T04:09:04.377Z,96829.78
2024-01-16T04:11:31.727Z,96819.94
2024-01-16T04:13:58.959Z,96852.69
2024-01-16T04:16:29.825Z,96811.59
2024-01-16T04:19:00.767Z,96823.22
2024-01-16T04:21:28.841Z,96834.66
2024-01-16T04:23:58.755Z,96868.44
2024-01-16T04:26:28.367Z,96866.47
2024-01-16T04:28:55.813Z,96814.03
2024-01-16T04:31:23.749Z,96812.72
2024-01-16T04:33:51.556Z,96769.97
2024-01-16T04:36:18.977Z,96775.03
2024-01-16T04:38:46.254Z,96835.66
2024-01-16T04:41:13.585Z,96837.16
2024-01-16T04:43:40.987Z,96829.78
2024-01-16T04:46:08.271Z,96827.78
2024-01-16T04:48:35.514Z,96850.88
2024-01-16T04:51:16.099Z,96854.69
2024-01-16T04:53:43.562Z,96838.94
2024-01-16T04:56:11.145Z,96870.91
2024-01-16T04:58:40.968Z,96869.44
2024-01-16T05:01:08.224Z,96875.31
2024-01-16T05:03:35.868Z,96853.72
2024-01-16T05:06:04.627Z,96851.56
2024-01-16T05:08:37.344Z,96882.72
2024-01-16T05:11:04.580Z,96848.13
2024-01-16T05:13:31.885Z,96860.91
2024-01-16T05:15:59.318Z,96852.06
2024-01-16T05:18:26.962Z,96861.72
2024-01-16T05:20:56.125Z,96844.84
2024-01-16T05:23:24.187Z,96872.22
2024-01-16T05:25:51.784Z,96821.25
2024-01-16T05:28:19.216Z,96861.38
2024-01-16T05:30:46.420Z,96875.19
2024-01-16T05:33:14.604Z,96834.19
2024-01-16T05:35:42.111Z,96846.34
2024-01-16T05:38:09.605Z,96882.56
2024-01-16T05:40:38.365Z,96812.72
2024-01-16T05:43:05.853Z,96848.13
2024-01-16T05:45:33.603Z,96841.56
2024-01-16T05:48:01.533Z,96865.19
2024-01-16T05:50:29.070Z,96850.91
2024-01-16T05:52:56.434Z,96884.50
2024-01-16T05:55:23.477Z,96865.19
2024-01-16T05:57:50.775Z,96838.81
2024-01-16T06:00:19.545Z,96827.16
2024-01-16T06:02:47.055Z,96854.34
2024-01-16T06:05:15.469Z,96814.84
2024-01-16T06:07:42.805Z,96836.97
2024-01-16T06:10:10.728Z,96852.88
2024-01-16T06:12:38.387Z,96897.13
2024-01-16T06:15:06.056Z,96846.28
2024-01-16T06:17:33.579Z,96883.50
2024-01-16T06:20:00.992Z,96904.00
2024-01-16T06:22:33.152Z,96868.91
2024-01-16T06:25:00.542Z,96845.00
2024-01-16T06:27:27.615Z,96877.47
2024-01-16T06:29:54.781Z,96840.75
2024-01-16T06:32:22.164Z,96855.00
2024-01-16T06:34:49.603Z,96845.81
2024-01-16T06:37:17.102Z,96868.41
2024-01-16T06:39:44.317Z,96888.75
2024-01-16T06:42:11.859Z,96904.97
2024-01-16T06:44:39.404Z,96863.66
2024-01-16T06:47:07.012Z,96851.69
2024-01-16T06:49:34.320Z,96901.19
2024-01-16T06:52:01.669Z,96838.22
2024-01-16T06:54:29.270Z,96863.97
2024-01-16T06:56:56.626Z,96856.44
2024-01-16T06:59:24.123Z,96849.91
2024-01-16T07:01:51.312Z,96852.34
2024-01-16T07:04:18.417Z,96908.59
2024-01-16T07:06:45.724Z,96909.75
2024-01-16T07:09:12.877Z,96900.91
2024-01-16T07:11:44.232Z,96894.31
2024-01-16T07:14:12.052Z,96882.34
2024-01-16T07:16:39.589Z,96915.50
2024-01-16T07:19:07.068Z,96887.09
2024-01-16T07:21:35.043Z,96874.16
2024-01-16T07:24:02.520Z,96883.34
2024-01-16T07:26:31.004Z,96911.91
2024-01-16T07:28:58.514Z,96906.50
2024-01-16T07:31:26.767Z,96888.13
2024-01-16T07:33:54.280Z,96880.91
2024-01-16T07:36:21.683Z,96897.63
2024-01-16T07:38:49.326Z,96857.94
2024-01-16T07:41:16.910Z,96885.50
2024-01-16T07:43:46.686Z,96863.50
2024-01-16T07:46:15.728Z,96900.59
2024-01-16T07:48:43.581Z,96921.06
2024-01-16T07:51:14.182Z,96870.09
2024-01-16T07:53:41.603Z,96826.66
2024-01-16T07:56:08.909Z,96859.63
2024-01-16T07:58:36.264Z,96881.72
2024-01-16T08:01:04.099Z,96856.00
2024-01-16T08:03:31.816Z,96878.28
2024-01-16T08:06:00.683Z,96895.34
2024-01-16T08:08:28.356Z,96895.66
2024-01-16T08:10:57.688Z,96868.59
2024-01-16T08:13:25.158Z,96858.78
2024-01-16T08:15:52.542Z,96858.78
2024-01-16T08:18:20.063Z,96870.72
2024-01-16T08:20:47.513Z,96791.72
2024-01-16T08:23:14.813Z,96886.78
2024-01-16T08:25:42.265Z,96852.97
2024-01-16T08:28:10.095Z,96856.56
2024-01-16T08:30:54.469Z,96803.16
2024-01-16T08:33:37.224Z,96861.06
2024-01-16T08:39:19.709Z,96850.31
2024-01-16T10:40:06.073Z,96766.66
2024-01-16T10:42:34.084Z,96758.63
2024-01-16T10:45:01.473Z,96760.75
2024-01-16T10:47:32.224Z,96800.84
2024-01-16T10:49:59.671Z,96728.28
2024-01-16T10:52:30.717Z,96744.31
2024-01-16T10:55:04.323Z,96788.03
2024-01-16T10:57:34.038Z,96716.31
2024-01-16T11:00:07.819Z,96791.78
2024-01-16T11:02:50.747Z,96704.34
2024-01-16T11:05:23.839Z,96738.56
2024-01-16T11:08:01.732Z,96752.22
2024-01-16T11:10:34.767Z,96700.09
2024-01-16T11:13:06.903Z,96722.97
2024-01-16T11:15:44.979Z,96704.16
2024-01-16T11:18:20.548Z,96745.41
2024-01-16T11:21:02.425Z,96770.31
2024-01-16T11:23:34.433Z,96735.94
2024-01-16T11:26:25.006Z,96714.50
2024-01-16T11:28:52.512Z,96723.28
2024-01-16T11:31:31.049Z,96723.31
2024-01-16T11:33:58.953Z,96701.69
2024-01-16T11:36:57.944Z,96755.72
2024-01-16T11:39:29.594Z,96698.78
2024-01-16T11:42:04.229Z,96679.88
2024-01-16T11:44:57.072Z,96746.25
2024-01-16T11:47:25.795Z,96717.31
2024-01-16T11:50:14.900Z,96743.97
2024-01-16T11:52:46.685Z,96742.16
2024-01-16T11:55:38.002Z,96713.91
2024-01-16T11:58:23.924Z,96735.00
2024-01-16T12:00:55.169Z,96698.50
2024-01-16T12:03:48.483Z,96731.50
2024-01-16T12:06:21.058Z,96700.25
2024-01-16T12:08:51.487Z,96672.00
2024-01-16T12:11:30.249Z,96689.63
2024-01-16T12:14:10.791Z,96681.44
2024-01-16T12:19:22.288Z,96724.81
2024-01-16T12:21:52.289Z,96680.34
2024-01-16T12:24:19.945Z,96671.16
2024-01-16T12:26:48.851Z,96678.19
2024-01-16T12:29:19.831Z,96677.56
2024-01-16T12:31:48.670Z,96663.78
2024-01-16T12:34:27.132Z,96663.78
2024-01-16T12:37:07.868Z,96698.78
2024-01-16T12:39:39.212Z,96700.41
2024-01-16T12:42:07.259Z,96710.59
2024-01-16T12:44:50.268Z,96686.19
2024-01-16T12:47:20.660Z,96661.50
2024-01-16T12:49:48.611Z,96672.03
2024-01-16T12:52:19.348Z,96684.47
2024-01-16T12:54:56.811Z,96673.47
2024-01-16T12:57:24.713Z,96710.28
2024-01-16T12:59:54.412Z,96689.38
2024-01-16T13:02:24.428Z,96609.50
2024-01-16T13:05:05.520Z,96634.38
2024-01-16T13:07:35.947Z,96710.00
2024-01-16T13:10:14.133Z,96632.78
2024-01-16T13:12:49.013Z,96688.41
2024-01-16T13:15:20.564Z,96708.78
2024-01-16T13:17:49.526Z,96688.69
2024-01-16T13:20:17.795Z,96657.44
2024-01-16T13:22:47.832Z,96677.50
2024-01-16T13:25:16.663Z,96670.97
2024-01-16T13:27:47.257Z,96640.88
2024-01-16T13:30:17.444Z,96651.94
2024-01-16T13:32:45.163Z,96619.66
2024-01-16T13:35:15.993Z,96650.38
2024-01-16T13:37:48.437Z,96663.94
2024-01-16T13:40:17.166Z,96685.75
2024-01-16T13:42:45.221Z,96630.28
2024-01-16T13:45:18.359Z,96618.50
2024-01-16T13:47:48.193Z,96683.25
2024-01-16T13:53:07.861Z,96686.56
2024-01-16T13:55:35.139Z,96694.22
2024-01-16T13:58:05.608Z,96687.66
2024-01-16T14:00:33.059Z,96655.28
2024-01-16T14:03:02.184Z,96629.25
2024-01-16T14:08:03.612Z,96641.66
2024-01-16T14:10:31.095Z,96685.03
2024-01-16T14:13:03.050Z,96697.00
2024-01-16T14:15:31.658Z,96682.91
2024-01-16T14:17:59.843Z,96637.63
2024-01-16T14:20:30.607Z,96644.16
2024-01-16T14:23:01.117Z,96670.41
2024-01-16T14:25:41.582Z,96665.16
2024-01-16T14:28:15.353Z,96635.13
2024-01-16T14:30:51.524Z,96636.09
2024-01-16T14:33:19.384Z,96651.75
2024-01-16T14:35:47.076Z,96631.81
2024-01-16T14:38:14.603Z,96619.25
2024-01-16T14:43:27.244Z,96603.16
2024-01-16T14:45:59.707Z,96669.94
2024-01-16T14:48:28.140Z,96656.50
2024-01-16T14:51:03.831Z,96606.50
2024-01-16T14:53:32.884Z,96670.63
2024-01-16T14:56:07.214Z,96587.53
2024-01-16T14:58:34.821Z,96640.16
2024-01-16T15:01:02.846Z,96588.97
2024-01-16T15:03:30.808Z,96639.00
2024-01-16T15:05:59.591Z,96662.72
2024-01-16T15:08:28.128Z,96588.28
2024-01-16T15:11:00.919Z,96632.00
2024-01-16T15:13:37.874Z,96621.53
2024-01-16T15:16:05.771Z,96570.84
2024-01-16T15:18:34.040Z,96661.75
2024-01-16T15:21:05.438Z,96631.66
2024-01-16T15:23:37.771Z,96636.84
2024-01-16T15:26:08.746Z,96595.97
2024-01-16T15:28:46.255Z,96610.06
2024-01-16T15:31:22.951Z,96570.25
2024-01-16T15:33:50.808Z,96650.25
2024-01-16T15:36:20.194Z,96596.25
2024-01-16T15:38:51.630Z,96650.00
2024-01-16T15:41:22.173Z,96583.84
2024-01-16T15:46:31.500Z,96583.63
2024-01-16T15:48:59.664Z,96595.84
2024-01-16T15:51:27.235Z,96586.28
2024-01-16T15:53:54.651Z,96601.75
2024-01-16T15:56:22.511Z,96593.28
2024-01-16T15:58:57.867Z,96604.72
2024-01-16T16:01:26.839Z,96617.81
2024-01-16T16:03:56.618Z,96629.38
2024-01-16T16:06:29.258Z,96635.44
2024-01-16T16:09:01.158Z,96644.91
2024-01-16T16:11:50.811Z,96573.34
2024-01-16T16:14:21.309Z,96631.00
2024-01-16T16:16:55.522Z,96638.69
2024-01-16T16:19:29.662Z,96622.09
2024-01-16T16:22:01.853Z,96562.31
2024-01-16T16:24:39.163Z,96534.53
2024-01-16T16:27:33.201Z,96616.94
2024-01-16T16:30:14.130Z,96592.75
2024-01-16T16:35:33.720Z,96545.84
2024-01-16T16:38:03.854Z,96596.66
2024-01-16T16:40:34.170Z,96592.66
2024-01-16T16:43:08.042Z,96579.63
2024-01-16T16:45:42.304Z,96612.63
2024-01-16T16:48:25.065Z,96617.44
2024-01-16T16:50:53.465Z,96584.06
2024-01-16T16:53:28.294Z,96552.72
2024-01-16T16:56:00.985Z,96570.41
2024-01-16T16:58:37.689Z,96604.97
2024-01-16T17:01:08.081Z,96551.91
2024-01-16T17:03:44.519Z,96574.38
2024-01-16T17:06:13.874Z,96565.47
2024-01-16T17:08:54.261Z,96570.53
2024-01-16T17:11:29.075Z,96599.25
2024-01-16T17:14:17.866Z,96524.28
2024-01-16T17:16:49.700Z,96567.41
2024-01-16T17:19:34.047Z,96618.13
2024-01-16T17:24:52.441Z,96596.16
2024-01-16T17:27:27.743Z,96586.88
2024-01-16T17:30:04.516Z,96511.56
2024-01-16T17:32:41.249Z,96602.28
2024-01-16T17:41:06.962Z,96578.91
2024-01-16T17:43:38.118Z,96552.91
2024-01-16T17:46:10.365Z,96526.59
2024-01-16T17:48:47.561Z,96551.41
2024-01-16T17:51:22.730Z,96525.00
2024-01-16T17:53:54.705Z,96523.69
2024-01-16T17:56:39.135Z,96589.72
2024-01-16T18:02:32.554Z,96555.19
2024-01-16T18:05:36.049Z,96532.94
2024-01-16T18:08:51.524Z,96525.13
2024-01-16T18:11:34.626Z,96576.81
2024-01-16T18:14:11.209Z,96598.22
2024-01-16T18:16:51.680Z,96607.44
2024-01-16T18:19:49.697Z,96565.91
2024-01-16T18:22:30.144Z,96573.06
2024-01-16T18:24:58.482Z,96545.63
2024-01-16T18:28:06.085Z,96533.66
2024-01-16T18:30:36.815Z,96608.50
2024-01-16T18:37:06.449Z,96600.03
2024-01-16T18:45:12.746Z,96548.09
2024-01-16T18:47:54.522Z,96603.03
2024-01-16T18:50:23.377Z,96554.31
2024-01-16T18:53:07.188Z,96539.13
2024-01-16T18:55:39.551Z,96571.84
2024-01-16T18:58:54.782Z,96626.16
2024-01-16T19:04:33.767Z,96597.72
2024-01-16T19:07:19.898Z,96640.75
2024-01-16T19:13:02.161Z,96576.75
2024-01-16T19:19:01.091Z,96578.75
2024-01-16T19:21:31.739Z,96646.31
2024-01-16T19:24:19.566Z,96612.94
2024-01-16T19:26:51.057Z,96597.88
2024-01-16T19:29:23.132Z,96592.31
2024-01-16T19:37:35.634Z,96634.88
2024-01-16T19:40:22.729Z,96616.38
2024-01-16T19:42:58.863Z,96615.59
2024-01-16T19:45:40.484Z,96607.72
2024-01-16T19:48:15.611Z,96646.19
2024-01-16T19:50:53.148Z,96693.34
2024-01-16T19:53:31.980Z,96705.63
2024-01-16T19:56:03.254Z,96643.41
2024-01-16T19:58:31.929Z,96706.91
2024-01-16T20:01:05.273Z,96712.97
2024-01-16T20:03:37.510Z,96625.41
2024-01-16T20:06:22.827Z,96676.94
2024-01-16T20:08:53.319Z,96721.97
2024-01-16T20:11:31.389Z,96682.66
2024-01-16T20:14:12.933Z,96710.84
2024-01-16T20:16:51.308Z,96629.47
2024-01-16T20:19:31.746Z,96644.19
2024-01-16T20:22:14.066Z,96703.94
2024-01-16T20:27:27.757Z,96717.69
2024-01-16T20:29:56.485Z,96711.47
2024-01-16T20:32:26.269Z,96688.53
2024-01-16T20:34:57.086Z,96700.50
2024-01-16T20:37:28.661Z,96663.66
2024-01-16T20:40:02.966Z,96753.09
2024-01-16T20:42:38.089Z,96756.22
2024-01-16T20:48:45.374Z,96720.91
2024-01-16T20:51:20.024Z,96682.75
2024-01-16T20:56:36.758Z,96693.41
2024-01-16T20:59:38.001Z,96729.47
2024-01-16T21:02:07.809Z,96768.44
2024-01-16T21:04:47.075Z,96714.31
2024-01-16T21:07:24.077Z,96780.22
2024-01-16T21:09:51.534Z,96708.91
2024-01-16T21:26:22.821Z,96711.63
2024-01-16T21:28:54.481Z,96743.06
2024-01-16T21:32:13.261Z,96787.34
2024-01-16T21:34:50.294Z,96805.34
2024-01-16T21:37:24.812Z,96723.75
2024-01-16T21:39:54.398Z,96758.94
2024-01-16T21:42:33.574Z,96737.13
2024-01-16T21:48:09.288Z,96786.03
2024-01-16T21:50:54.242Z,96749.44
2024-01-16T22:51:00.299Z,96896.28
2024-01-16T22:53:42.153Z,96887.88
2024-01-16T23:03:32.426Z,96939.91
2024-01-16T23:06:04.212Z,96903.84
2024-01-16T23:14:06.862Z,96954.88
2024-01-16T23:22:24.004Z,96945.09
2024-01-16T23:24:51.738Z,96939.16
2024-01-16T23:37:35.419Z,96928.53
2024-01-16T23:40:02.916Z,96960.50
2024-01-16T23:42:35.669Z,96941.28
2024-01-16T23:45:07.983Z,96919.75
2024-01-16T23:47:54.854Z,96942.34
2024-01-16T23:50:26.887Z,96961.31
2024-01-16T23:52:54.667Z,96994.31
2024-01-16T23:58:10.372Z,96927.56
